createdAt,value
2019-02-18T19:15:49.514Z,22.87
2019-02-18T19:18:13.672Z,22.47
2019-02-18T19:20:43.447Z,29.50
2019-02-18T19:23:13.527Z,24.70
2019-02-18T19:25:42.932Z,26.00
2019-02-18T19:28:13.276Z,35.23
2019-02-18T19:30:43.404Z,41.93
2019-02-18T19:33:12.511Z,48.97
2019-02-18T19:35:42.535Z,26.27
2019-02-18T19:38:12.413Z,25.93
2019-02-18T19:40:42.960Z,21.87
2019-02-18T19:43:12.547Z,23.07
2019-02-18T19:45:41.817Z,25.03
2019-02-18T19:48:11.119Z,33.97
2019-02-18T19:50:41.137Z,30.60
2019-02-18T19:53:10.912Z,26.43
2019-02-18T19:55:41.634Z,26.63
2019-02-18T19:58:13.481Z,25.77
2019-02-18T20:00:43.120Z,26.47
2019-02-18T20:03:12.598Z,21.57
2019-02-18T20:05:44.363Z,22.53
2019-02-18T20:08:14.226Z,26.90
2019-02-18T20:10:46.076Z,19.20
2019-02-18T20:13:16.537Z,20.57
2019-02-18T20:15:47.879Z,23.63
2019-02-18T20:18:17.570Z,24.47
2019-02-18T20:20:48.156Z,25.50
2019-02-18T20:23:17.729Z,22.63
2019-02-18T20:25:47.230Z,19.07
2019-02-18T20:28:17.841Z,25.63
2019-02-18T20:30:47.643Z,17.77
2019-02-18T20:33:17.719Z,16.20
2019-02-18T20:35:47.607Z,13.20
2019-02-18T20:38:17.011Z,15.67
2019-02-18T20:40:46.400Z,10.93
2019-02-18T20:43:15.793Z,17.30
2019-02-18T20:45:46.192Z,12.13
2019-02-18T20:48:16.663Z,14.20
2019-02-18T20:50:46.288Z,15.70
2019-02-18T20:53:16.534Z,18.70
2019-02-18T20:55:46.062Z,17.33
2019-02-18T20:58:15.686Z,14.10
2019-02-18T21:00:45.636Z,20.33
2019-02-18T21:03:16.437Z,21.97
2019-02-18T21:05:45.989Z,17.67
2019-02-18T21:08:15.250Z,19.70
2019-02-18T21:10:45.156Z,21.00
2019-02-18T21:13:14.714Z,23.57
2019-02-18T21:15:44.971Z,22.57
2019-02-18T21:18:15.001Z,26.67
2019-02-18T21:20:45.662Z,22.33
2019-02-18T21:23:16.483Z,24.30
2019-02-18T21:25:45.971Z,27.97
2019-02-18T21:28:16.084Z,29.20
2019-02-18T21:30:45.600Z,16.80
2019-02-18T21:33:15.718Z,18.00
2019-02-18T21:35:45.547Z,20.37
2019-02-18T21:38:16.156Z,19.43
2019-02-18T21:40:46.507Z,22.30
2019-02-18T21:43:16.229Z,21.70
2019-02-18T21:45:46.222Z,23.47
2019-02-18T21:48:16.095Z,25.13
2019-02-18T21:50:46.038Z,22.03
2019-02-18T21:53:15.430Z,22.03
2019-02-18T21:55:45.923Z,20.27
2019-02-18T21:58:16.044Z,21.87
2019-02-18T22:00:45.718Z,21.27
2019-02-18T22:03:15.102Z,29.53
2019-02-18T22:05:45.222Z,24.73
2019-02-18T22:08:14.620Z,27.13
2019-02-18T22:10:44.033Z,26.67
2019-02-18T22:13:13.426Z,23.97
2019-02-18T22:15:44.026Z,22.63
2019-02-18T22:18:13.908Z,21.93
2019-02-18T22:20:43.928Z,20.70
2019-02-18T22:23:14.022Z,19.90
2019-02-18T22:25:43.756Z,19.23
2019-02-18T22:28:12.935Z,19.33
2019-02-18T22:30:43.188Z,19.93
2019-02-18T22:33:13.503Z,18.27
2019-02-18T22:35:43.763Z,18.80
2019-02-18T22:38:13.100Z,18.83
2019-02-18T22:40:43.207Z,27.17
2019-02-18T22:43:12.798Z,17.73
2019-02-18T22:45:43.035Z,19.30
2019-02-18T22:48:12.356Z,20.13
2019-02-18T22:50:43.339Z,18.67
2019-02-18T22:53:13.593Z,19.77
2019-02-18T22:55:42.803Z,23.53
2019-02-18T22:58:12.085Z,20.63
2019-02-18T23:00:53.994Z,23.27
2019-02-18T23:03:23.134Z,19.87
2019-02-18T23:05:53.052Z,20.47
2019-02-18T23:08:22.283Z,23.70
2019-02-18T23:10:51.478Z,22.10
2019-02-18T23:13:21.840Z,21.13
2019-02-18T23:15:51.620Z,23.23
2019-02-18T23:18:22.334Z,20.10
2019-02-18T23:20:52.273Z,18.93
2019-02-18T23:23:22.024Z,23.07
2019-02-18T23:25:51.391Z,23.10
2019-02-18T23:28:21.786Z,21.37
2019-02-18T23:30:51.122Z,21.90
2019-02-18T23:33:20.416Z,21.43
2019-02-18T23:35:49.724Z,19.40
2019-02-18T23:38:19.660Z,18.60
2019-02-18T23:40:49.738Z,16.30
2019-02-18T23:43:19.072Z,18.80
2019-02-18T23:45:49.237Z,22.07
2019-02-18T23:48:18.798Z,16.47
2019-02-18T23:50:48.673Z,16.03
2019-02-18T23:53:18.460Z,17.43
2019-02-18T23:55:49.409Z,17.53
2019-02-18T23:58:19.544Z,17.90
